createdAt,value
2019-02-26T00:01:46.197Z,14.90
2019-02-26T00:04:13.662Z,13.90
2019-02-26T00:06:47.174Z,13.80
2019-02-26T00:09:13.312Z,15.60
2019-02-26T00:11:42.221Z,17.92
2019-02-26T00:14:15.505Z,17.02
2019-02-26T00:16:42.385Z,13.95
2019-02-26T00:19:14.261Z,15.85
2019-02-26T00:21:43.455Z,16.35
2019-02-26T00:24:14.597Z,17.20
2019-02-26T00:26:45.158Z,17.85
2019-02-26T00:29:14.284Z,15.63
2019-02-26T00:31:43.999Z,15.10
2019-02-26T00:34:18.617Z,19.73
2019-02-26T00:36:47.256Z,18.25
2019-02-26T00:39:16.111Z,14.93
2019-02-26T00:41:44.952Z,16.23
2019-02-26T00:44:13.946Z,13.80
2019-02-26T00:46:42.994Z,12.37
2019-02-26T00:49:11.779Z,11.12
2019-02-26T00:51:44.304Z,12.68
2019-02-26T00:54:11.277Z,14.45
2019-02-26T00:56:41.103Z,12.68
2019-02-26T00:59:10.208Z,13.60
2019-02-26T01:01:39.262Z,14.13
2019-02-26T01:04:08.233Z,11.08
2019-02-26T01:06:37.127Z,13.03
2019-02-26T01:09:10.692Z,11.85
2019-02-26T01:11:38.522Z,13.05
2019-02-26T01:14:07.316Z,12.65
2019-02-26T01:16:37.069Z,11.80
2019-02-26T01:19:08.520Z,12.75
2019-02-26T01:21:37.921Z,13.72
2019-02-26T01:24:08.622Z,13.83
2019-02-26T01:26:37.558Z,11.60
2019-02-26T01:29:06.358Z,14.63
2019-02-26T01:31:35.124Z,11.38
2019-02-26T01:34:04.079Z,17.50
2019-02-26T01:36:32.961Z,17.62
2019-02-26T01:39:01.794Z,11.80
2019-02-26T01:41:30.692Z,12.50
2019-02-26T01:43:59.553Z,11.22
2019-02-26T01:46:30.080Z,13.48
2019-02-26T01:48:59.906Z,12.50
2019-02-26T01:51:29.912Z,13.90
2019-02-26T01:53:58.808Z,15.50
2019-02-26T01:56:27.706Z,12.95
2019-02-26T01:58:59.439Z,12.85
2019-02-26T02:01:27.302Z,16.20
2019-02-26T02:03:56.440Z,12.45
2019-02-26T02:06:25.246Z,12.35
2019-02-26T02:08:55.733Z,14.30
2019-02-26T02:11:28.430Z,10.65
2019-02-26T02:13:55.327Z,11.80
2019-02-26T02:16:26.203Z,14.50
2019-02-26T02:18:55.328Z,13.00
2019-02-26T02:21:26.006Z,13.68
2019-02-26T02:23:55.920Z,13.70
2019-02-26T02:26:24.742Z,10.50
2019-02-26T02:28:53.622Z,14.00
2019-02-26T02:31:24.557Z,10.38
2019-02-26T02:33:53.400Z,12.78
2019-02-26T02:36:23.633Z,11.45
2019-02-26T02:38:52.848Z,11.60
2019-02-26T02:41:21.711Z,10.45
2019-02-26T02:43:50.484Z,12.98
2019-02-26T02:46:19.272Z,11.53
2019-02-26T02:48:48.165Z,12.85
2019-02-26T02:51:17.051Z,13.20
2019-02-26T02:53:47.812Z,11.33
2019-02-26T02:56:17.954Z,13.48
2019-02-26T02:58:49.507Z,9.83
2019-02-26T03:01:19.580Z,13.03
2019-02-26T03:03:50.297Z,11.48
2019-02-26T03:06:18.441Z,11.33
2019-02-26T03:08:48.009Z,11.95
2019-02-26T03:11:17.692Z,13.93
2019-02-26T03:13:48.373Z,11.38
2019-02-26T03:16:18.977Z,11.15
2019-02-26T03:18:47.238Z,11.30
2019-02-26T03:21:16.739Z,13.08
2019-02-26T03:23:46.421Z,11.68
2019-02-26T03:26:17.671Z,14.58
2019-02-26T03:28:48.148Z,9.88
2019-02-26T03:31:16.197Z,12.85
2019-02-26T03:33:44.903Z,12.78
2019-02-26T03:36:14.576Z,12.58
2019-02-26T03:38:48.375Z,11.10
2019-02-26T03:41:16.477Z,14.05
2019-02-26T03:43:45.815Z,16.62
2019-02-26T03:46:14.495Z,13.53
2019-02-26T03:48:43.254Z,11.03
2019-02-26T03:51:11.939Z,12.50
2019-02-26T03:53:41.786Z,11.35
2019-02-26T03:56:14.345Z,11.48
2019-02-26T03:58:41.624Z,13.10
2019-02-26T04:01:13.044Z,12.55
2019-02-26T04:03:42.504Z,14.05
2019-02-26T04:06:12.191Z,12.13
2019-02-26T04:08:42.266Z,13.55
2019-02-26T04:11:11.590Z,11.75
2019-02-26T04:13:41.064Z,11.63
2019-02-26T04:16:10.831Z,12.45
2019-02-26T04:18:39.751Z,10.20
2019-02-26T04:21:09.367Z,10.13
2019-02-26T04:23:41.570Z,12.78
2019-02-26T04:26:29.202Z,12.80
2019-02-26T04:29:19.912Z,10.15
2019-02-26T04:32:09.150Z,10.28
2019-02-26T04:34:54.655Z,14.78
2019-02-26T04:37:46.043Z,11.88
2019-02-26T04:40:28.380Z,11.80
2019-02-26T04:43:08.100Z,12.20
2019-02-26T04:45:53.038Z,12.40
2019-02-26T04:48:23.705Z,9.35
2019-02-26T04:50:53.206Z,13.00
2019-02-26T04:53:23.407Z,9.13
2019-02-26T04:55:52.626Z,11.63
2019-02-26T04:58:22.678Z,13.18
2019-02-26T05:00:51.820Z,9.80
2019-02-26T05:03:20.763Z,18.52
2019-02-26T05:05:53.705Z,12.37
2019-02-26T05:08:20.202Z,12.93
2019-02-26T05:10:51.325Z,11.80
2019-02-26T05:13:21.839Z,12.80
2019-02-26T05:15:49.936Z,10.78
2019-02-26T05:18:20.358Z,12.63
2019-02-26T05:20:49.128Z,13.98
2019-02-26T05:23:20.502Z,12.37
2019-02-26T05:25:48.736Z,13.15
2019-02-26T05:28:17.723Z,11.68
2019-02-26T05:30:49.485Z,13.30
2019-02-26T05:33:18.450Z,16.32
2019-02-26T05:35:48.990Z,14.15
2019-02-26T05:38:17.835Z,12.37
2019-02-26T05:40:48.227Z,11.55
2019-02-26T05:43:16.937Z,11.25
2019-02-26T05:45:45.619Z,13.85
2019-02-26T05:48:16.205Z,11.53
2019-02-26T05:50:44.880Z,12.00
2019-02-26T05:53:13.621Z,14.10
2019-02-26T05:55:45.092Z,10.85
2019-02-26T05:58:15.817Z,12.13
2019-02-26T06:00:43.283Z,12.23
2019-02-26T06:03:13.015Z,11.60
2019-02-26T06:05:45.747Z,15.85
2019-02-26T06:08:12.918Z,15.38
2019-02-26T06:10:41.594Z,15.03
2019-02-26T06:13:12.863Z,10.88
2019-02-26T06:15:40.581Z,15.05
2019-02-26T06:18:09.183Z,11.43
2019-02-26T06:20:38.032Z,10.20
2019-02-26T06:23:06.994Z,13.90
2019-02-26T06:25:35.626Z,14.65
2019-02-26T06:28:06.942Z,12.93
2019-02-26T06:30:34.777Z,14.43
2019-02-26T06:33:12.193Z,15.85
2019-02-26T06:35:41.153Z,14.63
2019-02-26T06:38:32.182Z,16.27
2019-02-26T06:41:00.472Z,14.25
2019-02-26T06:43:30.950Z,16.15
2019-02-26T06:46:00.167Z,16.02
2019-02-26T06:48:32.252Z,15.38
2019-02-26T06:51:04.132Z,14.95
2019-02-26T06:53:31.054Z,16.60
2019-02-26T06:56:00.847Z,23.50
2019-02-26T06:58:30.148Z,21.00
2019-02-26T07:00:59.260Z,19.10
2019-02-26T07:03:31.209Z,20.20
2019-02-26T07:06:06.184Z,17.77
2019-02-26T07:08:34.946Z,15.28
2019-02-26T07:11:26.254Z,18.25
2019-02-26T07:13:55.250Z,11.35
2019-02-26T07:16:24.034Z,14.13
2019-02-26T07:18:52.722Z,15.72
2019-02-26T07:21:21.439Z,18.33
2019-02-26T07:23:51.531Z,13.03
2019-02-26T07:26:21.242Z,13.43
2019-02-26T07:28:51.259Z,14.20
2019-02-26T07:31:19.955Z,12.60
2019-02-26T07:33:48.679Z,13.63
2019-02-26T07:36:18.538Z,14.20
2019-02-26T07:38:49.670Z,14.97
2019-02-26T07:41:18.887Z,14.37
2019-02-26T07:43:49.373Z,12.03
2019-02-26T07:46:19.279Z,14.60
2019-02-26T07:48:53.632Z,9.50
2019-02-26T07:51:19.760Z,12.63
2019-02-26T07:53:50.998Z,11.53
2019-02-26T07:56:20.663Z,15.87
2019-02-26T07:58:49.293Z,14.37
2019-02-26T08:01:17.951Z,13.27
2019-02-26T08:03:48.681Z,14.27
2019-02-26T08:06:17.153Z,16.27
2019-02-26T08:08:48.465Z,13.77
2019-02-26T08:11:16.414Z,13.60
2019-02-26T08:13:45.084Z,14.20
2019-02-26T08:16:13.771Z,14.23
2019-02-26T08:18:42.351Z,14.13
2019-02-26T08:21:10.993Z,13.50
2019-02-26T08:23:41.299Z,9.77
2019-02-26T08:26:10.161Z,12.07
2019-02-26T08:28:40.929Z,9.07
2019-02-26T08:31:11.266Z,9.50
2019-02-26T08:33:39.637Z,10.37
2019-02-26T08:36:08.332Z,11.60
2019-02-26T08:38:37.049Z,8.30
2019-02-26T08:41:05.788Z,13.97
2019-02-26T08:43:34.469Z,10.33
2019-02-26T08:46:03.124Z,10.17
2019-02-26T08:48:31.892Z,13.60
2019-02-26T08:51:03.062Z,9.67
2019-02-26T08:53:31.618Z,8.37
2019-02-26T08:56:01.961Z,11.47
2019-02-26T08:58:31.050Z,9.20
2019-02-26T09:00:59.720Z,10.53
2019-02-26T09:03:28.464Z,10.67
2019-02-26T09:06:10.172Z,9.87
2019-02-26T09:08:27.513Z,9.17
2019-02-26T09:10:56.113Z,11.23
2019-02-26T09:13:25.565Z,11.33
2019-02-26T09:15:55.615Z,9.43
2019-02-26T09:18:28.059Z,11.50
2019-02-26T09:20:55.331Z,10.40
2019-02-26T09:23:25.828Z,11.80
2019-02-26T09:25:57.188Z,10.17
2019-02-26T09:28:27.012Z,12.60
2019-02-26T09:30:56.420Z,13.07
2019-02-26T09:33:30.552Z,12.83
2019-02-26T09:35:56.735Z,12.67
2019-02-26T09:38:25.619Z,11.73
2019-02-26T09:40:54.709Z,12.40
2019-02-26T09:43:24.704Z,13.20
2019-02-26T09:45:53.435Z,9.80
2019-02-26T09:48:22.126Z,10.57
2019-02-26T09:50:50.870Z,12.57
2019-02-26T09:53:19.520Z,10.73
2019-02-26T09:55:48.148Z,11.07
2019-02-26T09:58:18.599Z,12.23
2019-02-26T10:00:47.993Z,10.43
2019-02-26T10:03:17.506Z,12.23
2019-02-26T10:05:48.209Z,10.77
2019-02-26T10:08:17.345Z,12.23
2019-02-26T10:10:47.022Z,11.90
2019-02-26T10:13:16.459Z,11.53
2019-02-26T10:15:45.979Z,10.87
2019-02-26T10:18:14.694Z,13.53
2019-02-26T10:20:45.182Z,10.93
2019-02-26T10:23:13.696Z,14.70
2019-02-26T10:25:42.399Z,10.27
2019-02-26T10:28:30.193Z,16.33
2019-02-26T10:31:03.862Z,10.40
2019-02-26T10:33:50.748Z,11.13
2019-02-26T10:36:41.222Z,11.90
2019-02-26T10:39:47.309Z,12.00
2019-02-26T10:42:18.096Z,10.20
2019-02-26T10:44:52.073Z,15.47
2019-02-26T10:47:22.769Z,10.50
2019-02-26T10:49:51.860Z,10.93
2019-02-26T10:52:22.104Z,11.83
2019-02-26T11:19:33.791Z,9.67
2019-02-26T11:22:04.161Z,9.67
2019-02-26T11:24:35.623Z,15.13
2019-02-26T11:27:04.262Z,9.60
2019-02-26T11:29:35.705Z,8.00
2019-02-26T11:32:04.627Z,10.17
2019-02-26T11:34:36.289Z,8.83
2019-02-26T11:37:08.770Z,9.10
2019-02-26T11:39:35.797Z,11.13
2019-02-26T11:42:04.603Z,8.27
2019-02-26T11:44:35.253Z,9.87
2019-02-26T11:47:04.401Z,9.00
2019-02-26T11:49:47.981Z,8.63
2019-02-26T11:52:28.671Z,8.43
2019-02-26T11:55:11.087Z,11.20
2019-02-26T11:57:49.841Z,9.90
2019-02-26T12:00:33.893Z,8.17
2019-02-26T12:03:01.172Z,7.97
2019-02-26T12:05:54.211Z,11.20
2019-02-26T12:08:43.125Z,10.27
2019-02-26T12:11:25.640Z,8.77
2019-02-26T12:14:16.424Z,10.20
2019-02-26T12:20:24.181Z,6.93
2019-02-26T12:23:41.649Z,8.30
2019-02-26T12:26:35.734Z,8.37
2019-02-26T12:29:23.541Z,7.33
2019-02-26T12:32:04.727Z,8.13
2019-02-26T12:47:49.427Z,4.30
2019-02-26T13:18:33.662Z,6.60
2019-02-26T13:32:55.320Z,4.77
2019-02-26T14:08:04.522Z,3.47
2019-02-26T15:15:32.461Z,5.57
2019-02-26T15:47:54.770Z,6.47
2019-02-26T15:51:14.082Z,7.80
2019-02-26T15:54:12.919Z,6.60
2019-02-26T15:56:53.586Z,6.63
2019-02-26T16:03:07.678Z,5.07
2019-02-26T16:06:06.448Z,8.97
2019-02-26T16:08:38.560Z,7.50
2019-02-26T16:29:03.891Z,5.87
2019-02-26T16:31:40.750Z,10.03
2019-02-26T16:36:59.562Z,6.77
2019-02-26T16:39:28.251Z,7.50
2019-02-26T16:41:57.316Z,8.93
2019-02-26T16:44:25.989Z,9.80
2019-02-26T16:46:54.652Z,7.73
2019-02-26T16:49:25.817Z,6.50
2019-02-26T16:51:54.954Z,6.27
2019-02-26T16:54:24.393Z,8.03
2019-02-26T16:56:54.674Z,8.30
2019-02-26T17:02:28.004Z,12.50
2019-02-26T17:04:57.088Z,8.50
2019-02-26T17:07:25.966Z,9.47
2019-02-26T17:09:55.742Z,6.23
2019-02-26T17:12:26.915Z,8.50
2019-02-26T17:14:56.226Z,9.63
2019-02-26T17:24:11.191Z,7.27
2019-02-26T17:26:39.927Z,9.17
2019-02-26T17:29:08.673Z,10.03
2019-02-26T17:31:37.426Z,12.27
2019-02-26T17:34:06.215Z,10.07
2019-02-26T17:36:35.486Z,8.10
2019-02-26T17:39:05.428Z,8.70
2019-02-26T17:41:34.998Z,13.10
2019-02-26T17:44:03.712Z,13.83
2019-02-26T17:46:32.487Z,11.77
2019-02-26T17:49:02.951Z,16.30
2019-02-26T17:51:31.597Z,16.87
2019-02-26T17:54:01.987Z,11.40
2019-02-26T17:56:30.956Z,13.77
2019-02-26T17:58:59.696Z,13.20
2019-02-26T18:01:28.484Z,11.73
2019-02-26T18:03:57.342Z,11.57
2019-02-26T18:06:26.105Z,13.37
2019-02-26T18:08:56.469Z,14.63
2019-02-26T18:11:25.514Z,12.83
2019-02-26T18:13:54.314Z,11.57
2019-02-26T18:16:23.022Z,13.63
2019-02-26T18:18:51.716Z,10.17
2019-02-26T18:21:20.491Z,9.80
2019-02-26T18:23:49.255Z,10.63
2019-02-26T18:26:18.431Z,14.93
2019-02-26T18:28:47.794Z,11.97
2019-02-26T18:31:26.031Z,9.67
2019-02-26T18:33:47.512Z,9.17
2019-02-26T18:36:18.621Z,11.07
2019-02-26T18:38:48.768Z,8.20
2019-02-26T18:41:17.885Z,14.67
2019-02-26T18:43:47.425Z,9.07
2019-02-26T18:46:16.881Z,9.27
2019-02-26T18:48:48.344Z,9.07
2019-02-26T18:51:16.051Z,10.30
2019-02-26T18:53:47.082Z,9.37
2019-02-26T18:56:15.421Z,9.70
2019-02-26T18:58:44.138Z,12.43
2019-02-26T19:01:12.909Z,10.23
2019-02-26T19:03:42.158Z,9.37
2019-02-26T19:06:11.086Z,10.70
2019-02-26T19:08:39.969Z,10.90
2019-02-26T19:11:08.742Z,15.17
2019-02-26T19:13:37.526Z,10.97
2019-02-26T19:16:06.359Z,16.83
2019-02-26T19:18:35.741Z,11.53
2019-02-26T19:21:05.084Z,10.13
2019-02-26T19:23:33.882Z,12.77
2019-02-26T19:26:02.556Z,10.10
2019-02-26T19:28:31.329Z,15.57
2019-02-26T19:31:00.039Z,11.87
2019-02-26T19:33:28.673Z,13.27
2019-02-26T19:35:57.357Z,11.50
2019-02-26T19:38:27.690Z,10.77
2019-02-26T19:40:57.083Z,17.27
2019-02-26T19:43:26.074Z,16.43
2019-02-26T19:45:55.375Z,15.27
2019-02-26T19:48:24.170Z,16.63
2019-02-26T19:50:52.883Z,22.70
2019-02-26T19:53:21.554Z,20.10
2019-02-26T19:55:50.288Z,22.00
2019-02-26T19:58:19.054Z,29.53
2019-02-26T20:00:47.830Z,19.83
2019-02-26T20:03:16.591Z,26.60
2019-02-26T20:05:46.632Z,25.80
2019-02-26T20:08:15.632Z,27.53
2019-02-26T20:10:47.723Z,33.97
2019-02-26T20:13:14.946Z,29.43
2019-02-26T20:15:43.701Z,25.47
2019-02-26T20:18:20.260Z,25.60
2019-02-26T20:20:45.693Z,18.63
2019-02-26T20:23:13.177Z,19.77
2019-02-26T20:25:42.754Z,19.10
2019-02-26T20:28:12.087Z,25.17
2019-02-26T20:30:40.772Z,17.47
2019-02-26T20:33:09.518Z,17.50
2019-02-26T20:35:38.226Z,17.50
2019-02-26T20:38:06.939Z,15.93
2019-02-26T20:40:35.717Z,21.23
2019-02-26T20:43:05.399Z,21.17
2019-02-26T20:45:34.214Z,23.23
2019-02-26T20:48:04.169Z,19.23
2019-02-26T20:50:41.624Z,16.63
2019-02-26T20:53:10.315Z,14.57
2019-02-26T20:55:39.064Z,15.53
2019-02-26T20:58:09.643Z,17.13
2019-02-26T21:00:42.410Z,14.53
2019-02-26T21:03:08.704Z,16.33
2019-02-26T21:05:37.368Z,14.03
2019-02-26T21:08:06.093Z,12.97
2019-02-26T21:10:34.846Z,13.90
2019-02-26T21:13:03.516Z,10.93
2019-02-26T21:15:32.193Z,9.23
2019-02-26T21:18:00.893Z,16.30
2019-02-26T21:20:29.595Z,11.67
2019-02-26T21:22:58.314Z,12.10
2019-02-26T21:25:27.004Z,13.60
2019-02-26T21:27:55.698Z,13.20
2019-02-26T21:30:24.456Z,12.10
2019-02-26T21:32:53.310Z,14.70
2019-02-26T21:35:21.982Z,12.87
2019-02-26T21:37:50.688Z,11.40
2019-02-26T21:40:19.351Z,12.97
2019-02-26T21:42:48.030Z,16.83
2019-02-26T21:45:16.754Z,11.83
2019-02-26T21:47:45.417Z,11.70
2019-02-26T21:50:14.205Z,15.07
2019-02-26T21:52:42.958Z,16.10
2019-02-26T21:55:11.702Z,15.53
2019-02-26T21:57:40.450Z,14.50
2019-02-26T22:00:10.720Z,14.83
2019-02-26T22:02:39.432Z,11.37
2019-02-26T22:05:08.657Z,12.13
2019-02-26T22:07:37.394Z,11.57
2019-02-26T22:10:07.272Z,11.20
2019-02-26T22:12:36.495Z,15.23
2019-02-26T22:15:10.227Z,16.40
2019-02-26T22:17:36.010Z,11.23
2019-02-26T22:20:05.360Z,10.17
2019-02-26T22:22:34.128Z,13.17
2019-02-26T22:25:09.503Z,13.90
2019-02-26T22:27:33.745Z,12.67
2019-02-26T22:30:04.917Z,10.37
2019-02-26T22:32:34.973Z,11.43
2019-02-26T22:35:03.988Z,14.13
2019-02-26T22:37:32.673Z,10.93
2019-02-26T22:40:01.432Z,11.13
2019-02-26T22:42:30.169Z,12.47
2019-02-26T22:44:58.868Z,9.90
2019-02-26T22:47:27.518Z,9.70
2019-02-26T22:49:56.189Z,10.47
2019-02-26T22:52:24.902Z,9.43
2019-02-26T22:54:53.635Z,9.47
2019-02-26T22:57:22.330Z,8.63
2019-02-26T22:59:50.920Z,9.80
2019-02-26T23:02:20.127Z,9.70
2019-02-26T23:04:52.619Z,8.80
2019-02-26T23:07:19.227Z,9.50
2019-02-26T23:09:52.024Z,11.10
2019-02-26T23:12:19.165Z,10.03
2019-02-26T23:14:47.858Z,10.73
2019-02-26T23:17:16.878Z,12.80
2019-02-26T23:19:45.584Z,12.73
2019-02-26T23:22:14.258Z,7.83
